CYBC

Baie Comeau Airport

ICAO Code CYBC
IATA Code YBC
Name Baie Comeau Airport
Location Baie-Comeau, Quebec, CA
Elevation 71 Feet / 21.6 Meters
Latitude 49.13250000
Longitude -68.20444444
METAR CYBC 182329Z AUTO 07010G15KT 9SM OVC021 17/15 A2978 RMK PCPN 1.0MM PAST HR RVR MISG SLP085 DENSITY ALT 500FT
Extra information Display NOTAMS
Display Charts
Runway Length Width Surface Elevation
10 6000 ft 150 ft ASP 70 ft
28 6000 ft 150 ft ASP 66 ft

Mandatory Routes

Baie Comeau Airport

Direction Destination Level Remark Type Route
ARR FR W L RNAV KESLU T603 YBC
DEP TO W H&L A120 & ABV RNAV MIVAX
DEP TO W L A100 & BLW RNAV YBC V316 MIVAX
ARR FR CYZV H RNAV YZV J555 YBC
ARR FR CYZV L RNAV YZV V316 YBC